Time;durP1;ratioP1;P1;durP2;ratioP2;P2;SDS_P1;SDS_P2;PMS_P1;PMS_P2;Temp;Humidity;BMP_temperature;BMP_pressure;BME280_temperature;BME280_humidity;BME280_pressure;Samples;Min_cycle;Max_cycle;Signal;HPM_P1;HPM_P2
2023/03/16 00:01:08;;;;;;;20.88;8.43;;;;;;;1.98;73.69;100557.56;4949466;27;20131;-70
2023/03/16 00:03:39;;;;;;;19.25;8.00;;;;;;;1.96;73.73;100541.19;4926556;28;20458;-68
2023/03/16 00:06:10;;;;;;;22.25;7.85;;;;;;;1.97;73.64;100537.75;4937229;27;20576;-69
2023/03/16 00:08:42;;;;;;;21.08;8.15;;;;;;;2.01;73.95;100529.28;4953547;27;20052;-69
2023/03/16 00:11:12;;;;;;;27.05;8.68;;;;;;;1.98;73.96;100524.06;4948359;27;20051;-66
2023/03/16 00:13:44;;;;;;;21.45;7.97;;;;;;;2.09;73.56;100507.13;4949686;27;20075;-70
2023/03/16 00:16:15;;;;;;;26.55;8.82;;;;;;;2.26;73.50;100514.34;4948869;27;20467;-70
2023/03/16 00:18:46;;;;;;;17.58;7.50;;;;;;;2.13;73.26;100461.66;4948405;27;20812;-70
2023/03/16 00:21:17;;;;;;;22.08;8.73;;;;;;;2.42;72.37;100510.38;4948500;27;20075;-70
2023/03/16 00:23:47;;;;;;;23.50;8.80;;;;;;;2.30;72.46;100503.28;4949137;27;20498;-71
2023/03/16 00:26:18;;;;;;;20.20;7.47;;;;;;;2.15;72.46;100496.97;4946965;27;20043;-68
2023/03/16 00:28:53;;;;;;;19.02;7.20;;;;;;;2.08;72.83;100495.06;4947625;27;20059;-66
2023/03/16 00:31:24;;;;;;;20.42;7.93;;;;;;;1.92;72.68;100482.69;4937818;27;20055;-71
2023/03/16 00:33:54;;;;;;;28.95;6.85;;;;;;;1.76;73.39;100454.84;4949329;27;20056;-71
2023/03/16 00:36:25;;;;;;;22.20;7.10;;;;;;;1.76;73.70;100460.88;4947017;28;20055;-69
2023/03/16 00:38:56;;;;;;;19.75;7.60;;;;;;;1.99;74.03;100448.47;4947898;27;20066;-68
2023/03/16 00:41:26;;;;;;;21.67;7.50;;;;;;;2.08;73.99;100468.44;4947377;27;20059;-71
2023/03/16 00:44:00;;;;;;;24.23;8.00;;;;;;;2.10;73.33;100493.41;4948145;27;20500;-68
2023/03/16 00:46:30;;;;;;;20.20;7.97;;;;;;;2.02;73.52;100505.28;4945891;27;20083;-70
2023/03/16 00:49:01;;;;;;;25.23;7.40;;;;;;;1.27;73.58;100401.41;4952267;27;20100;-70
2023/03/16 00:51:32;;;;;;;20.40;6.90;;;;;;;1.68;73.94;100493.31;4948447;27;20047;-68
2023/03/16 00:54:04;;;;;;;25.08;7.47;;;;;;;1.79;74.51;100529.63;4946606;27;20058;-69
2023/03/16 00:56:34;;;;;;;24.05;7.55;;;;;;;1.78;74.77;100530.47;4946106;27;20131;-70
2023/03/16 00:59:07;;;;;;;21.25;7.18;;;;;;;1.54;75.08;100508.44;4947699;27;20059;-69
2023/03/16 01:01:38;;;;;;;19.98;6.60;;;;;;;1.87;75.40;100566.75;4944960;27;20078;-68
2023/03/16 01:04:09;;;;;;;16.60;6.65;;;;;;;1.93;76.15;100561.75;4947571;27;20066;-70
2023/03/16 01:06:40;;;;;;;18.30;6.78;;;;;;;1.90;76.46;100546.22;4946754;27;20056;-66
2023/03/16 01:09:11;;;;;;;19.92;6.65;;;;;;;1.69;78.18;100521.66;4953852;27;20137;-66
2023/03/16 01:11:44;;;;;;;26.40;7.07;;;;;;;1.76;79.27;100516.69;4946598;27;20043;-67
2023/03/16 01:14:16;;;;;;;22.95;7.95;;;;;;;1.79;79.93;100511.59;4947281;27;20052;-70
2023/03/16 01:16:47;;;;;;;21.42;7.18;;;;;;;1.86;80.23;100492.88;4946854;27;20101;-67
2023/03/16 01:19:17;;;;;;;17.58;7.78;;;;;;;1.73;80.73;100486.56;4948497;27;20058;-71
2023/03/16 01:21:48;;;;;;;22.25;8.05;;;;;;;1.49;81.53;100445.66;4945927;27;20054;-69
2023/03/16 01:24:18;;;;;;;24.90;8.50;;;;;;;1.55;82.38;100463.84;4957869;27;20127;-69
2023/03/16 01:26:49;;;;;;;27.13;9.93;;;;;;;1.51;82.93;100459.44;4946778;27;20529;-72
2023/03/16 01:29:25;;;;;;;22.55;9.65;;;;;;;1.49;83.52;100450.78;4947086;27;20478;-65
2023/03/16 01:31:55;;;;;;;30.20;9.75;;;;;;;1.45;83.92;100430.97;4936092;27;20071;-70
2023/03/16 01:34:26;;;;;;;21.52;9.18;;;;;;;1.44;84.30;100404.34;4947804;27;20051;-68
2023/03/16 01:36:57;;;;;;;27.58;10.75;;;;;;;1.52;84.91;100394.19;4947949;27;20055;-71
2023/03/16 01:39:28;;;;;;;27.45;10.07;;;;;;;1.73;84.72;100389.53;4946237;27;20048;-71
2023/03/16 01:41:58;;;;;;;24.42;10.75;;;;;;;1.24;84.52;100306.06;4946207;27;20050;-69
2023/03/16 01:44:33;;;;;;;22.35;9.85;;;;;;;1.89;84.83;100379.53;4947182;27;20055;-67
2023/03/16 01:47:04;;;;;;;22.38;9.40;;;;;;;1.86;85.11;100379.50;4936169;27;20051;-70
2023/03/16 01:49:37;;;;;;;22.63;9.93;;;;;;;1.86;85.80;100374.34;4946605;28;20055;-68
2023/03/16 01:52:13;;;;;;;23.63;10.25;;;;;;;1.81;85.47;100381.97;4947117;27;20065;-68
2023/03/16 01:54:47;;;;;;;31.45;10.63;;;;;;;1.77;86.41;100353.53;4937536;27;20043;-67
2023/03/16 01:57:20;;;;;;;34.38;15.13;;;;;;;1.84;86.90;100339.94;4945587;27;20054;-66
2023/03/16 01:59:55;;;;;;;37.60;18.63;;;;;;;1.94;87.00;100347.88;4941251;27;20055;-64
2023/03/16 02:02:31;;;;;;;33.70;11.05;;;;;;;2.08;86.17;100344.72;4945390;27;20047;-67
2023/03/16 02:05:05;;;;;;;27.27;9.15;;;;;;;2.09;86.58;100334.41;4940603;27;20048;-65
2023/03/16 02:07:38;;;;;;;26.80;9.93;;;;;;;2.10;86.65;100328.44;4945451;27;20164;-66
2023/03/16 02:10:11;;;;;;;28.48;11.32;;;;;;;2.06;86.37;100326.63;4946164;27;20043;-66
2023/03/16 02:12:43;;;;;;;27.58;11.68;;;;;;;2.03;86.47;100321.44;4936797;27;20050;-66
2023/03/16 02:15:16;;;;;;;34.13;11.73;;;;;;;2.05;86.47;100308.56;4946331;27;20132;-64
2023/03/16 02:17:47;;;;;;;25.30;11.60;;;;;;;1.97;86.33;100305.81;4946636;28;20048;-63
2023/03/16 02:20:34;;;;;;;22.67;10.65;;;;;;;1.95;86.91;100297.22;4946226;27;20055;-63
2023/03/16 02:23:06;;;;;;;29.90;12.80;;;;;;;1.90;87.11;100293.69;4932826;27;20617;-60
2023/03/16 02:25:47;;;;;;;25.17;13.32;;;;;;;2.18;87.27;100283.91;4944279;27;20058;-60
2023/03/16 02:28:26;;;;;;;21.58;10.73;;;;;;;2.12;87.31;100270.06;4936052;27;20138;-61
2023/03/16 02:30:58;;;;;;;29.38;10.80;;;;;;;2.15;87.03;100274.41;4935829;27;20154;-61
2023/03/16 02:33:30;;;;;;;30.10;10.80;;;;;;;2.14;87.46;100268.34;4945691;27;20093;-62
2023/03/16 02:36:02;;;;;;;27.58;12.57;;;;;;;2.09;87.72;100280.28;4935681;27;20048;-60
2023/03/16 02:38:33;;;;;;;28.30;11.30;;;;;;;2.03;88.19;100262.16;4946488;27;20047;-60
2023/03/16 02:41:12;;;;;;;26.13;14.85;;;;;;;1.96;88.62;100257.72;4945001;27;20055;-59
2023/03/16 02:43:48;;;;;;;27.27;11.82;;;;;;;2.04;89.21;100260.44;4935036;27;20055;-59
2023/03/16 02:46:22;;;;;;;22.75;8.85;;;;;;;2.05;89.50;100255.31;4946787;28;20130;-58
2023/03/16 02:49:01;;;;;;;18.55;6.78;;;;;;;2.12;89.83;100246.84;4949200;27;20053;-58
2023/03/16 02:51:32;;;;;;;27.67;6.45;;;;;;;2.16;90.59;100240.88;4936898;27;20181;-58
2023/03/16 02:54:03;;;;;;;16.45;6.97;;;;;;;2.18;90.75;100232.34;4944758;27;20062;-57
2023/03/16 02:56:33;;;;;;;18.40;6.35;;;;;;;2.28;90.54;100240.25;4945496;28;20065;-57
2023/03/16 02:59:04;;;;;;;18.85;6.32;;;;;;;2.32;90.52;100223.09;4945498;28;20079;-58
2023/03/16 03:01:36;;;;;;;15.38;5.82;;;;;;;2.30;91.00;100206.75;4945788;28;20067;-58
2023/03/16 03:04:07;;;;;;;15.57;5.90;;;;;;;2.37;90.38;100208.56;4945172;28;20055;-58
2023/03/16 03:06:38;;;;;;;11.95;4.78;;;;;;;1.85;90.83;100122.69;4945345;28;20539;-58
2023/03/16 03:09:10;;;;;;;22.23;6.15;;;;;;;2.29;91.06;100194.69;4945518;28;20059;-57
2023/03/16 03:11:41;;;;;;;17.27;6.13;;;;;;;2.22;91.66;100192.84;4940919;28;20049;-56
2023/03/16 03:14:12;;;;;;;17.25;5.85;;;;;;;2.15;91.78;100174.72;4947776;28;20155;-57
2023/03/16 03:16:45;;;;;;;13.35;5.25;;;;;;;2.13;92.02;100173.81;4945217;28;20047;-56
2023/03/16 03:19:16;;;;;;;16.10;5.55;;;;;;;2.12;92.44;100161.78;4946231;28;21043;-57
2023/03/16 03:21:46;;;;;;;11.07;5.55;;;;;;;2.13;93.01;100153.22;4945450;28;20448;-57
2023/03/16 03:24:17;;;;;;;14.10;6.18;;;;;;;2.13;92.93;100148.06;4944725;28;20052;-57
2023/03/16 03:26:48;;;;;;;17.80;7.70;;;;;;;2.15;93.37;100140.34;4945322;28;20161;-57
2023/03/16 03:29:19;;;;;;;12.85;7.45;;;;;;;2.12;93.33;100115.41;4946142;28;20059;-57
2023/03/16 03:31:51;;;;;;;12.73;6.38;;;;;;;2.22;93.25;100115.50;4944077;28;20044;-57
2023/03/16 03:34:25;;;;;;;17.85;6.10;;;;;;;2.28;93.33;100110.47;4935542;28;20051;-56
2023/03/16 03:36:56;;;;;;;16.75;5.80;;;;;;;2.33;93.16;100088.19;4945875;28;20478;-58
2023/03/16 03:39:26;;;;;;;9.00;5.30;;;;;;;2.39;93.53;100088.25;4944160;28;20086;-58
2023/03/16 03:41:57;;;;;;;21.27;5.82;;;;;;;2.51;93.42;100067.81;4944611;28;20058;-58
2023/03/16 03:44:27;;;;;;;15.02;5.95;;;;;;;2.69;93.32;100072.31;4945316;28;20112;-59
2023/03/16 03:47:00;;;;;;;16.20;5.85;;;;;;;2.34;92.56;99966.16;4945716;28;20078;-58
2023/03/16 03:49:31;;;;;;;15.35;6.00;;;;;;;2.86;92.36;100018.34;4940656;28;20097;-58
2023/03/16 03:52:03;;;;;;;15.32;6.10;;;;;;;3.21;91.91;100046.25;4948402;28;20056;-58
2023/03/16 03:54:34;;;;;;;19.10;6.90;;;;;;;3.31;90.71;100032.56;4945617;28;20048;-59
2023/03/16 03:57:06;;;;;;;12.38;6.55;;;;;;;3.39;90.43;100020.56;4944985;28;20150;-59
2023/03/16 03:59:41;;;;;;;18.38;6.47;;;;;;;3.42;90.44;100025.78;4944178;28;20251;-58
2023/03/16 04:02:14;;;;;;;16.33;6.25;;;;;;;3.44;90.04;100013.75;4936423;28;20060;-59
2023/03/16 04:04:45;;;;;;;16.35;7.00;;;;;;;3.49;89.90;99997.41;4945311;28;20039;-58
2023/03/16 04:07:16;;;;;;;10.57;6.38;;;;;;;3.62;89.96;100004.41;4947825;27;20036;-59
2023/03/16 04:09:46;;;;;;;13.43;6.65;;;;;;;3.65;88.73;100000.13;4948138;27;20526;-59
2023/03/16 04:12:17;;;;;;;13.63;6.53;;;;;;;3.58;88.87;99993.19;4948607;27;20043;-58
2023/03/16 04:14:48;;;;;;;15.63;5.63;;;;;;;3.61;88.67;99985.44;4949156;27;20040;-58
2023/03/16 04:17:20;;;;;;;19.48;7.07;;;;;;;3.58;88.80;99985.44;4947543;27;20047;-59
2023/03/16 04:19:50;;;;;;;15.20;5.82;;;;;;;3.48;88.86;99977.63;4945565;27;20053;-58
2023/03/16 04:22:22;;;;;;;18.90;6.88;;;;;;;3.28;89.26;99980.03;4954464;27;20048;-58
2023/03/16 04:24:52;;;;;;;13.45;6.28;;;;;;;3.19;89.60;99965.31;4947877;27;20050;-58
2023/03/16 04:27:23;;;;;;;15.40;7.10;;;;;;;3.13;89.75;99976.47;4946900;27;20134;-58
2023/03/16 04:29:57;;;;;;;22.73;9.25;;;;;;;3.03;90.18;99975.50;4947688;27;20486;-58
2023/03/16 04:32:30;;;;;;;24.15;9.90;;;;;;;2.94;90.24;99970.25;4948335;27;20474;-60
2023/03/16 04:35:01;;;;;;;24.73;8.48;;;;;;;2.96;90.35;99953.06;4942739;27;20064;-59
2023/03/16 04:37:33;;;;;;;19.33;7.90;;;;;;;3.09;90.77;99968.66;4951114;27;20056;-58
2023/03/16 04:40:10;;;;;;;20.15;8.60;;;;;;;2.98;89.83;99961.69;4949277;27;20102;-58
2023/03/16 04:42:41;;;;;;;20.65;9.02;;;;;;;2.91;90.24;99959.91;4944461;27;20137;-61
2023/03/16 04:45:13;;;;;;;17.25;7.47;;;;;;;2.88;91.21;99957.28;4950686;27;20053;-60
2023/03/16 04:47:45;;;;;;;19.33;7.85;;;;;;;2.92;90.73;99951.31;4947433;27;20051;-59
2023/03/16 04:50:15;;;;;;;27.40;8.43;;;;;;;2.97;90.53;99929.00;4947875;27;20046;-59
2023/03/16 04:52:46;;;;;;;17.05;7.95;;;;;;;3.05;90.69;99959.19;4948613;27;20043;-57
2023/03/16 04:55:16;;;;;;;23.05;8.63;;;;;;;2.91;89.91;99939.25;4946464;27;20138;-61
2023/03/16 04:57:47;;;;;;;30.38;9.27;;;;;;;2.82;90.46;99939.16;4946980;27;20043;-60
2023/03/16 05:00:19;;;;;;;20.60;8.10;;;;;;;2.70;91.12;99933.91;4948457;27;20167;-60
2023/03/16 05:02:52;;;;;;;29.40;9.85;;;;;;;2.40;90.80;99909.50;4947841;27;20051;-59
2023/03/16 05:05:23;;;;;;;22.10;8.35;;;;;;;2.52;91.27;99930.28;4936621;27;20047;-59
2023/03/16 05:07:53;;;;;;;19.45;9.43;;;;;;;2.53;91.31;99939.72;4947727;27;20054;-62
2023/03/16 05:10:24;;;;;;;32.55;9.95;;;;;;;2.22;91.56;99879.25;4948266;27;20047;-58
2023/03/16 05:12:55;;;;;;;25.85;9.25;;;;;;;2.51;91.80;99923.38;4945926;27;20055;-60
2023/03/16 05:15:26;;;;;;;19.30;9.70;;;;;;;2.52;91.83;99919.97;4916548;27;20062;-61
2023/03/16 05:17:58;;;;;;;29.25;10.50;;;;;;;2.27;91.68;99887.00;4946042;27;20153;-61
2023/03/16 05:20:29;;;;;;;21.00;9.18;;;;;;;2.51;92.02;99923.38;4947158;27;20062;-61
2023/03/16 05:22:59;;;;;;;22.63;9.02;;;;;;;2.51;91.89;99923.38;4944514;28;20050;-61
2023/03/16 05:25:30;;;;;;;27.50;9.38;;;;;;;2.49;91.93;99927.63;4944865;27;20065;-59
2023/03/16 05:28:00;;;;;;;26.98;10.40;;;;;;;2.45;92.33;99927.63;4955311;27;20116;-61
2023/03/16 05:30:31;;;;;;;25.23;10.45;;;;;;;2.48;92.37;99913.03;4952496;27;20056;-60
2023/03/16 05:33:03;;;;;;;28.70;10.45;;;;;;;2.47;92.57;99906.16;4947478;27;20093;-60
2023/03/16 05:35:34;;;;;;;22.77;10.23;;;;;;;2.45;92.42;99901.84;4946066;27;20557;-60
2023/03/16 05:38:08;;;;;;;25.75;10.95;;;;;;;2.23;92.57;99891.28;4943979;27;20055;-61
2023/03/16 05:40:39;;;;;;;30.48;9.95;;;;;;;2.38;92.72;99937.00;4940474;27;20059;-60
2023/03/16 05:43:10;;;;;;;27.85;9.10;;;;;;;2.24;92.92;99933.38;4945405;27;20767;-61
2023/03/16 05:45:40;;;;;;;22.92;9.70;;;;;;;2.05;92.99;99928.00;4944890;27;20052;-60
2023/03/16 05:48:12;;;;;;;28.60;10.05;;;;;;;2.09;93.38;99949.50;4954063;27;20057;-58
2023/03/16 05:50:43;;;;;;;40.80;11.05;;;;;;;2.07;93.93;99946.94;4945988;27;20139;-60
2023/03/16 05:53:14;;;;;;;34.67;9.88;;;;;;;2.13;94.68;99951.28;4946798;27;20063;-59
2023/03/16 05:55:44;;;;;;;21.88;9.90;;;;;;;2.17;94.57;99963.34;4946831;27;20055;-59
2023/03/16 05:58:15;;;;;;;31.70;9.85;;;;;;;2.19;94.92;99963.38;4945431;27;20075;-60
2023/03/16 06:00:45;;;;;;;20.92;9.48;;;;;;;2.12;94.46;99945.28;4945623;27;20158;-61
2023/03/16 06:03:17;;;;;;;27.92;9.65;;;;;;;2.30;94.74;99954.94;4946197;27;20051;-60
2023/03/16 06:05:49;;;;;;;25.23;9.27;;;;;;;2.42;94.96;99953.34;4947215;27;20064;-58
2023/03/16 06:08:19;;;;;;;32.80;8.90;;;;;;;2.45;94.38;99956.84;4946304;27;20082;-60
2023/03/16 06:10:49;;;;;;;28.63;9.52;;;;;;;2.44;94.00;99961.97;4945707;27;20134;-60
2023/03/16 06:13:20;;;;;;;23.02;9.35;;;;;;;2.11;93.77;99930.66;4947449;27;20068;-58
2023/03/16 06:15:51;;;;;;;26.60;10.63;;;;;;;2.41;93.37;99962.81;4954787;27;20059;-60
2023/03/16 06:18:23;;;;;;;25.88;8.70;;;;;;;2.37;93.38;99966.19;4947588;27;20055;-60
2023/03/16 06:20:54;;;;;;;25.23;8.68;;;;;;;2.12;93.26;99919.50;4946103;27;20055;-59
2023/03/16 06:23:24;;;;;;;24.55;8.50;;;;;;;1.80;92.93;99858.94;4945928;27;20051;-57
2023/03/16 06:25:55;;;;;;;22.63;8.63;;;;;;;2.30;93.02;99954.09;4946756;27;20055;-58
2023/03/16 06:28:25;;;;;;;23.42;10.10;;;;;;;2.05;92.71;99917.69;4945671;27;20059;-58
2023/03/16 06:30:57;;;;;;;25.50;9.93;;;;;;;2.15;93.31;99950.47;4945902;27;20066;-58
2023/03/16 06:33:30;;;;;;;23.45;9.75;;;;;;;1.75;93.26;99900.13;4946553;27;21037;-59
2023/03/16 06:36:00;;;;;;;25.60;9.15;;;;;;;2.14;93.36;99961.59;4942635;27;20056;-60
2023/03/16 06:38:32;;;;;;;30.27;9.57;;;;;;;1.90;93.02;99908.06;4947916;27;20128;-60
2023/03/16 06:41:02;;;;;;;29.20;9.50;;;;;;;2.14;92.53;99963.31;4946012;27;20063;-61
2023/03/16 06:43:33;;;;;;;25.23;9.65;;;;;;;2.43;92.73;99971.44;4946071;28;20047;-58
2023/03/16 06:46:03;;;;;;;28.80;9.95;;;;;;;2.61;91.63;99985.38;4946188;27;20378;-61
2023/03/16 06:48:36;;;;;;;21.38;8.75;;;;;;;2.64;91.01;99990.56;4945321;27;20082;-60
2023/03/16 06:51:06;;;;;;;28.73;9.05;;;;;;;2.53;91.14;100009.38;4946525;27;20055;-58
2023/03/16 06:53:37;;;;;;;27.02;9.18;;;;;;;2.36;91.05;100026.34;4944515;28;20052;-58
2023/03/16 06:56:08;;;;;;;28.75;8.93;;;;;;;2.10;91.68;100039.75;4944681;28;20058;-60
2023/03/16 06:58:39;;;;;;;30.35;9.90;;;;;;;1.97;92.33;100071.31;4944158;27;20040;-61
2023/03/16 07:01:11;;;;;;;29.15;9.85;;;;;;;1.83;92.44;100080.56;4944902;28;20114;-59
2023/03/16 07:03:43;;;;;;;35.17;10.18;;;;;;;1.82;92.86;100094.28;4936833;27;20105;-61
2023/03/16 07:06:13;;;;;;;21.30;9.07;;;;;;;1.83;93.33;100102.03;4944628;27;20060;-59
2023/03/16 07:08:44;;;;;;;23.77;8.77;;;;;;;1.76;93.28;100110.50;4945049;28;20062;-60
2023/03/16 07:11:15;;;;;;;17.48;6.55;;;;;;;1.79;92.79;100112.25;4943912;28;20051;-59
2023/03/16 07:13:45;;;;;;;19.27;6.93;;;;;;;1.80;92.91;100132.03;4944685;28;20077;-58
2023/03/16 07:16:16;;;;;;;16.63;6.45;;;;;;;1.72;92.69;100119.91;4944660;28;20134;-60
2023/03/16 07:18:48;;;;;;;19.88;6.95;;;;;;;1.77;92.38;100126.81;4944948;28;20227;-60
2023/03/16 07:21:18;;;;;;;14.98;6.10;;;;;;;1.80;92.31;100139.75;4944787;28;20063;-60
2023/03/16 07:23:49;;;;;;;15.27;6.28;;;;;;;1.82;92.46;100135.50;4943742;28;20387;-57
2023/03/16 07:26:20;;;;;;;16.27;5.18;;;;;;;1.86;91.84;100121.84;4944689;28;20490;-60
2023/03/16 07:28:50;;;;;;;13.43;4.80;;;;;;;1.98;91.13;100132.34;4943157;28;20432;-60
2023/03/16 07:31:21;;;;;;;12.32;4.00;;;;;;;2.11;89.72;100144.56;4949064;28;20056;-58
2023/03/16 07:33:53;;;;;;;9.23;3.78;;;;;;;2.14;88.47;100134.31;4946313;28;20136;-60
2023/03/16 07:36:24;;;;;;;9.90;3.58;;;;;;;1.83;87.73;100096.03;4945138;28;21042;-60
2023/03/16 07:38:55;;;;;;;10.55;3.95;;;;;;;2.32;86.98;100158.63;4943261;28;20051;-58
2023/03/16 07:41:25;;;;;;;8.30;2.95;;;;;;;1.91;85.81;100094.44;4945163;27;20058;-57
2023/03/16 07:43:57;;;;;;;6.80;3.40;;;;;;;2.29;85.19;100171.50;4947781;27;20048;-60
2023/03/16 07:46:27;;;;;;;11.25;4.60;;;;;;;2.21;85.33;100171.38;4946559;27;20556;-58
2023/03/16 07:49:00;;;;;;;10.73;4.45;;;;;;;2.26;85.21;100189.50;4946941;27;20130;-60
2023/03/16 07:51:30;;;;;;;9.00;4.15;;;;;;;2.19;85.33;100196.25;4944578;27;20067;-58
2023/03/16 07:54:01;;;;;;;10.55;3.70;;;;;;;2.10;85.61;100184.09;4954545;27;20053;-61
2023/03/16 07:56:31;;;;;;;6.57;2.65;;;;;;;2.13;83.58;100194.44;4951280;27;20056;-58
2023/03/16 07:59:17;;;;;;;4.80;2.28;;;;;;;2.09;81.90;100208.13;4938031;27;20150;-61
2023/03/16 08:01:49;;;;;;;3.85;2.20;;;;;;;1.98;79.77;100203.63;4948200;27;20048;-60
2023/03/16 08:04:24;;;;;;;4.20;2.38;;;;;;;1.87;79.83;100206.00;4948844;27;20045;-59
2023/03/16 08:06:59;;;;;;;6.63;2.72;;;;;;;1.82;79.77;100217.94;4936625;27;20056;-59
2023/03/16 08:09:30;;;;;;;9.20;3.17;;;;;;;1.79;80.41;100215.31;4947662;27;20048;-59
2023/03/16 08:12:00;;;;;;;3.90;2.60;;;;;;;1.70;80.60;100216.88;4955504;27;20066;-60
2023/03/16 08:14:34;;;;;;;8.63;3.70;;;;;;;1.67;80.14;100218.53;4950477;27;22245;-60
2023/03/16 08:17:11;;;;;;;5.32;2.97;;;;;;;1.57;79.45;100227.78;4946176;27;20083;-60
2023/03/16 08:19:48;;;;;;;3.55;2.60;;;;;;;1.50;78.72;100228.53;4936320;27;20047;-61
2023/03/16 08:22:19;;;;;;;3.92;2.90;;;;;;;1.44;78.93;100246.41;4945735;27;20051;-58
2023/03/16 08:24:51;;;;;;;5.82;3.13;;;;;;;1.32;78.44;100251.31;4945979;27;20064;-62
2023/03/16 08:27:21;;;;;;;5.78;3.30;;;;;;;0.80;78.90;100203.03;4940619;27;20085;-58
2023/03/16 08:29:55;;;;;;;7.47;3.80;;;;;;;0.43;78.97;100153.34;4949194;27;20047;-61
2023/03/16 08:32:27;;;;;;;8.15;4.78;;;;;;;0.96;78.94;100262.56;4946767;27;20124;-60
2023/03/16 08:34:59;;;;;;;9.80;5.95;;;;;;;0.88;79.15;100269.22;4947801;27;20225;-58
2023/03/16 08:37:30;;;;;;;11.60;7.13;;;;;;;0.74;78.14;100262.03;4947540;27;20059;-61
2023/03/16 08:40:01;;;;;;;13.27;8.15;;;;;;;0.59;76.48;100271.97;4946327;27;21223;-61
2023/03/16 08:42:39;;;;;;;21.40;10.13;;;;;;;0.53;76.79;100302.69;4947160;27;20051;-61
2023/03/16 08:45:11;;;;;;;11.38;7.53;;;;;;;0.52;77.20;100306.06;4947890;27;20059;-59
2023/03/16 08:47:43;;;;;;;15.75;9.00;;;;;;;0.36;77.89;100305.69;4937882;27;20061;-62
2023/03/16 08:50:15;;;;;;;15.38;9.73;;;;;;;0.39;77.97;100326.34;4947270;27;20512;-62
2023/03/16 08:52:48;;;;;;;17.25;9.30;;;;;;;0.32;77.34;100344.13;4947455;27;20066;-61
2023/03/16 08:55:19;;;;;;;14.65;9.32;;;;;;;0.24;77.37;100346.50;4948246;27;20051;-61
2023/03/16 08:57:50;;;;;;;21.10;10.52;;;;;;;0.17;76.76;100339.44;4947490;27;20057;-62
2023/03/16 09:00:22;;;;;;;17.95;9.88;;;;;;;0.10;76.63;100337.53;4941653;27;20052;-59
2023/03/16 09:02:53;;;;;;;20.15;9.77;;;;;;;0.11;77.14;100359.84;4947129;27;20092;-60
2023/03/16 09:05:27;;;;;;;18.38;10.07;;;;;;;0.10;77.02;100363.22;4948604;27;20051;-61
2023/03/16 09:08:04;;;;;;;17.20;10.63;;;;;;;0.05;77.04;100385.38;4945411;28;20081;-61
2023/03/16 09:10:35;;;;;;;17.15;10.55;;;;;;;-0.01;76.48;100381.78;4936476;27;20052;-62
2023/03/16 09:13:11;;;;;;;18.30;10.88;;;;;;;-0.06;75.90;100391.06;4945609;27;20043;-63
2023/03/16 09:15:41;;;;;;;21.27;10.88;;;;;;;-0.09;75.76;100398.69;4938107;27;20068;-64
2023/03/16 09:18:12;;;;;;;20.67;11.60;;;;;;;-0.09;76.55;100393.56;4946477;27;21007;-65
2023/03/16 09:20:46;;;;;;;20.15;12.45;;;;;;;-0.10;75.88;100412.38;4946806;27;20043;-64
2023/03/16 09:23:17;;;;;;;22.48;12.60;;;;;;;-0.10;75.90;100417.50;4947108;27;20062;-64
2023/03/16 09:25:50;;;;;;;19.77;12.82;;;;;;;-0.11;75.93;100420.91;4945715;27;20621;-65
2023/03/16 09:28:24;;;;;;;20.30;11.85;;;;;;;-0.12;75.84;100424.31;4936450;27;20052;-61
2023/03/16 09:30:55;;;;;;;18.60;11.18;;;;;;;-0.24;75.05;100418.81;4947376;27;20066;-65
2023/03/16 09:33:27;;;;;;;23.02;12.13;;;;;;;-0.37;75.23;100406.44;4945730;27;20062;-62
2023/03/16 09:36:05;;;;;;;24.77;11.93;;;;;;;-0.27;75.14;100434.13;4945050;27;20056;-63
2023/03/16 09:38:36;;;;;;;19.50;11.68;;;;;;;-0.20;74.81;100446.31;4935055;27;20062;-66
2023/03/16 09:41:10;;;;;;;24.08;12.07;;;;;;;-0.19;74.82;100448.06;4947819;27;20043;-66
2023/03/16 09:44:00;;;;;;;22.45;11.80;;;;;;;-0.15;74.88;100455.03;4942746;27;20056;-60
2023/03/16 09:46:37;;;;;;;22.23;11.65;;;;;;;-0.12;75.40;100449.13;4929473;27;21617;-66
2023/03/16 09:49:10;;;;;;;21.40;12.15;;;;;;;-0.09;75.80;100450.06;4928909;28;20641;-66
2023/03/16 09:51:50;;;;;;;22.42;12.77;;;;;;;-0.09;75.47;100450.06;4944168;27;20234;-62
2023/03/16 09:54:32;;;;;;;17.70;11.38;;;;;;;-0.15;75.00;100449.91;4944413;27;20048;-65
2023/03/16 09:57:07;;;;;;;22.23;11.18;;;;;;;-0.20;75.63;100451.47;4935731;27;20539;-67
2023/03/16 09:59:37;;;;;;;28.48;15.48;;;;;;;-0.20;75.02;100456.59;4946736;27;20142;-64
2023/03/16 10:02:30;;;;;;;70.40;24.38;;;;;;;-0.30;75.13;100469.94;4944236;27;20498;-63
2023/03/16 10:05:08;;;;;;;53.97;22.95;;;;;;;-0.37;75.17;100468.06;4928007;27;20094;-67
2023/03/16 10:07:51;;;;;;;26.48;14.68;;;;;;;-0.48;75.39;100466.00;4946738;27;20400;-63
2023/03/16 10:10:41;;;;;;;27.05;13.88;;;;;;;-0.41;75.18;100484.16;4928345;27;20069;-66
2023/03/16 10:13:17;;;;;;;;;;;;;;;-0.47;75.03;100493.44;4939214;27;20056;-63
2023/03/16 10:15:49;;;;;;;25.65;13.68;;;;;;;-0.45;75.39;100502.06;4946839;27;19935;-65
2023/03/16 10:18:24;;;;;;;28.05;14.05;;;;;;;-0.48;75.46;100519.91;4945310;27;20124;-65
2023/03/16 10:20:55;;;;;;;29.00;15.00;;;;;;;-0.49;75.61;100525.88;4945646;27;20047;-64
2023/03/16 10:23:28;;;;;;;30.67;15.00;;;;;;;-0.50;75.27;100529.28;4946252;27;20075;-65
2023/03/16 10:25:59;;;;;;;25.48;14.57;;;;;;;-0.56;75.53;100529.06;4946966;27;20135;-63
2023/03/16 10:28:32;;;;;;;21.33;12.57;;;;;;;-0.58;75.61;100540.97;4945640;27;20100;-65
2023/03/16 10:31:03;;;;;;;25.90;14.07;;;;;;;-0.59;75.69;100544.34;4936282;28;20118;-68
2023/03/16 10:33:36;;;;;;;24.83;13.52;;;;;;;-0.89;75.64;100506.59;4946816;27;20460;-64
2023/03/16 10:36:29;;;;;;;25.25;13.40;;;;;;;-0.68;75.65;100537.22;4944916;27;20108;-67
2023/03/16 10:39:29;;;;;;;27.77;14.07;;;;;;;-0.67;75.82;100550.94;4923412;27;20120;-67
2023/03/16 10:42:02;;;;;;;28.48;15.05;;;;;;;-0.59;75.99;100541.78;4935523;27;20520;-68
2023/03/16 10:44:40;;;;;;;26.85;14.45;;;;;;;-0.58;75.94;100548.66;4946419;27;20498;-66
2023/03/16 10:47:23;;;;;;;23.15;13.35;;;;;;;-0.52;76.02;100545.44;4941937;28;20500;-63
2023/03/16 10:49:54;;;;;;;24.08;13.60;;;;;;;-0.48;75.60;100548.13;4935039;27;20492;-66
2023/03/16 10:52:32;;;;;;;26.10;13.38;;;;;;;-0.49;76.08;100546.41;4947134;27;20115;-66
2023/03/16 10:55:11;;;;;;;23.33;13.98;;;;;;;-0.40;76.25;100550.09;4934932;28;20048;-69
2023/03/16 10:57:44;;;;;;;32.08;18.25;;;;;;;-0.47;76.31;100544.75;4934846;27;20981;-69
2023/03/16 11:00:27;;;;;;;28.83;15.00;;;;;;;-0.43;75.94;100561.13;4942846;28;20546;-64
2023/03/16 11:03:01;;;;;;;41.67;19.45;;;;;;;-0.56;75.88;100539.31;4941672;27;20055;-68
2023/03/16 11:05:34;;;;;;;55.20;24.75;;;;;;;-0.48;75.96;100553.28;4940059;28;20049;-70
2023/03/16 11:08:12;;;;;;;69.03;28.85;;;;;;;-0.46;76.52;100551.63;4945730;28;20130;-65
2023/03/16 11:10:47;;;;;;;27.77;14.60;;;;;;;-1.00;76.46;100454.06;4936048;28;20146;-69
2023/03/16 11:13:33;;;;;;;51.67;22.35;;;;;;;-0.92;76.19;100473.16;4934092;28;20055;-66
2023/03/16 11:16:15;;;;;;;53.65;24.90;;;;;;;-0.49;75.85;100559.25;4936302;27;20108;-66
2023/03/16 11:19:13;;;;;;;51.58;25.65;;;;;;;-0.80;76.13;100512.84;4938806;27;20498;-68
2023/03/16 11:21:59;;;;;;;34.45;18.45;;;;;;;-0.62;75.71;100544.25;4926691;27;20090;-65
2023/03/16 11:24:40;;;;;;;35.92;16.13;;;;;;;-0.60;75.41;100557.13;4937614;27;20131;-68
2023/03/16 11:27:47;;;;;;;24.48;13.40;;;;;;;-0.61;75.43;100569.09;4933174;27;20056;-62
2023/03/16 11:30:29;;;;;;;25.83;13.80;;;;;;;-0.60;75.32;100565.72;4938121;27;20047;-67
2023/03/16 11:33:03;;;;;;;25.08;15.55;;;;;;;-0.60;75.87;100572.53;4937984;27;20043;-67
2023/03/16 11:35:52;;;;;;;24.80;12.65;;;;;;;-0.65;75.53;100574.94;4939129;27;20043;-69
2023/03/16 11:38:35;;;;;;;24.70;13.93;;;;;;;-0.73;75.64;100571.25;4932538;27;20052;-67
2023/03/16 11:41:08;;;;;;;23.83;13.98;;;;;;;-0.81;76.08;100577.81;4936206;27;20140;-67
2023/03/16 11:43:55;;;;;;;31.10;16.38;;;;;;;-0.96;76.16;100563.63;4949337;27;20139;-65
2023/03/16 11:46:29;;;;;;;52.25;23.15;;;;;;;-0.90;76.25;100583.47;4939403;27;20051;-64
2023/03/16 11:49:31;;;;;;;30.08;16.02;;;;;;;-0.92;76.39;100586.00;4948129;27;24412;-69
2023/03/16 11:52:14;;;;;;;22.92;12.95;;;;;;;-1.00;76.57;100582.31;4938996;27;20144;-65